createdAt,value
2023-01-17T00:02:17.948Z,82.14
2023-01-17T00:05:03.322Z,81.63
2023-01-17T00:07:49.337Z,80.93
2023-01-17T00:10:19.063Z,81.08
2023-01-17T00:12:54.216Z,81.08
2023-01-17T00:15:23.545Z,80.19
2023-01-17T00:17:50.943Z,80.79
2023-01-17T00:20:55.971Z,79.89
2023-01-17T00:24:00.976Z,80.93
2023-01-17T00:26:28.048Z,80.80
2023-01-17T00:28:54.926Z,80.38
2023-01-17T00:31:22.305Z,80.61
2023-01-17T00:33:49.361Z,80.56
2023-01-17T00:36:16.159Z,80.25
2023-01-17T00:38:43.285Z,81.87
2023-01-17T00:41:13.185Z,80.80
2023-01-17T00:43:59.132Z,81.16
2023-01-17T00:46:44.784Z,80.22
2023-01-17T00:49:30.314Z,79.15
2023-01-17T00:52:15.701Z,79.93
2023-01-17T00:55:01.291Z,80.05
2023-01-17T00:57:46.797Z,81.08
2023-01-17T01:00:32.493Z,81.22
2023-01-17T01:03:18.404Z,80.88
2023-01-17T01:06:03.855Z,80.57
2023-01-17T01:08:49.428Z,80.19
2023-01-17T01:11:39.035Z,80.83
2023-01-17T01:14:27.063Z,80.54
2023-01-17T01:17:12.905Z,81.87
2023-01-17T01:19:58.305Z,81.34
2023-01-17T01:22:43.903Z,80.07
2023-01-17T01:25:29.338Z,81.49
2023-01-17T01:28:31.740Z,81.39
2023-01-17T01:31:23.888Z,81.04
2023-01-17T01:33:52.324Z,81.98
2023-01-17T01:36:19.436Z,81.48
2023-01-17T01:38:46.591Z,81.32
2023-01-17T01:41:13.568Z,81.12
2023-01-17T01:43:54.954Z,80.86
2023-01-17T01:46:31.576Z,82.20
2023-01-17T01:49:06.002Z,81.92
2023-01-17T01:51:40.141Z,82.18
2023-01-17T01:54:20.898Z,82.13
2023-01-17T01:56:49.958Z,82.54
2023-01-17T01:59:20.280Z,81.01
2023-01-17T02:01:50.419Z,83.20
2023-01-17T02:04:19.041Z,83.76
2023-01-17T02:06:54.294Z,83.07
2023-01-17T02:09:21.832Z,83.59
2023-01-17T02:11:49.904Z,83.25
2023-01-17T02:14:18.800Z,84.01
2023-01-17T02:16:55.042Z,83.63
2023-01-17T02:20:00.282Z,84.30
2023-01-17T02:22:33.094Z,84.53
2023-01-17T02:25:36.923Z,84.31
2023-01-17T02:28:27.837Z,84.19
2023-01-17T02:31:02.523Z,84.66
2023-01-17T02:33:38.472Z,84.00
2023-01-17T02:36:21.311Z,85.09
2023-01-17T02:38:50.647Z,85.71
2023-01-17T02:41:27.721Z,86.40
2023-01-17T02:43:54.647Z,85.59
2023-01-17T02:46:21.554Z,84.75
2023-01-17T02:48:49.513Z,84.73
2023-01-17T02:51:27.891Z,85.22
2023-01-17T02:54:42.432Z,86.22
2023-01-17T02:57:16.226Z,87.48
2023-01-17T03:00:01.881Z,87.87
2023-01-17T03:02:34.012Z,88.37
2023-01-17T03:05:27.808Z,88.87
2023-01-17T03:07:56.189Z,89.21
2023-01-17T03:10:24.247Z,89.58
2023-01-17T03:12:56.571Z,89.80
2023-01-17T03:15:23.494Z,89.28
2023-01-17T03:17:55.092Z,87.84
2023-01-17T03:20:22.823Z,87.09
2023-01-17T03:22:49.869Z,85.61
2023-01-17T03:25:17.035Z,86.34
2023-01-17T03:27:44.081Z,85.13
2023-01-17T03:30:11.677Z,85.01
2023-01-17T03:32:38.796Z,84.88
2023-01-17T03:35:06.597Z,84.83
2023-01-17T03:37:33.593Z,85.17
2023-01-17T03:40:00.659Z,83.64
2023-01-17T03:42:27.719Z,83.83
2023-01-17T03:44:54.822Z,82.49
2023-01-17T03:47:22.198Z,82.84
2023-01-17T03:49:49.199Z,82.34
2023-01-17T03:52:16.331Z,82.20
2023-01-17T03:54:43.501Z,81.46
2023-01-17T03:57:10.287Z,82.14
2023-01-17T03:59:37.308Z,82.51
2023-01-17T04:02:04.368Z,81.52
2023-01-17T04:04:31.362Z,81.51
2023-01-17T04:06:58.159Z,81.71
2023-01-17T04:09:25.115Z,82.42
2023-01-17T04:11:53.499Z,83.05
2023-01-17T04:14:20.332Z,81.37
2023-01-17T04:16:47.417Z,80.08
2023-01-17T04:19:14.475Z,81.75
2023-01-17T04:21:41.471Z,83.59
2023-01-17T04:24:08.568Z,81.63
2023-01-17T04:26:35.879Z,81.80
2023-01-17T04:29:03.349Z,80.81
2023-01-17T04:31:30.657Z,80.60
2023-01-17T04:33:57.532Z,82.17
2023-01-17T04:36:24.521Z,82.28
2023-01-17T04:38:51.405Z,83.11
2023-01-17T04:41:18.358Z,82.91
2023-01-17T04:43:45.178Z,82.11
2023-01-17T04:46:12.769Z,82.90
2023-01-17T04:48:39.669Z,83.21
2023-01-17T04:51:06.917Z,83.50
2023-01-17T04:53:33.997Z,83.82
2023-01-17T04:56:00.857Z,83.15
2023-01-17T04:58:28.029Z,82.59
2023-01-17T05:00:55.141Z,83.30
2023-01-17T05:03:23.275Z,83.64
2023-01-17T05:05:50.490Z,82.86
2023-01-17T05:08:17.722Z,83.27
2023-01-17T05:10:47.268Z,83.47
2023-01-17T05:13:15.096Z,82.72
2023-01-17T05:15:42.182Z,82.59
2023-01-17T05:18:13.452Z,83.23
2023-01-17T05:20:40.458Z,83.05
2023-01-17T05:23:07.719Z,83.44
2023-01-17T05:25:36.258Z,82.80
2023-01-17T05:28:03.785Z,83.52
2023-01-17T05:30:32.664Z,84.18
2023-01-17T05:32:59.934Z,84.87
2023-01-17T05:35:29.423Z,85.57
2023-01-17T05:37:56.727Z,85.63
2023-01-17T05:40:26.789Z,85.53
2023-01-17T05:42:56.111Z,85.92
2023-01-17T05:45:25.454Z,86.22
2023-01-17T05:47:54.555Z,86.54
2023-01-17T05:50:30.689Z,86.81
2023-01-17T05:53:00.397Z,86.88
2023-01-17T05:55:28.907Z,87.37
2023-01-17T05:57:56.407Z,86.76
2023-01-17T06:00:24.619Z,85.99
2023-01-17T06:02:54.472Z,86.28
2023-01-17T06:05:22.258Z,87.03
2023-01-17T06:07:49.291Z,87.39
2023-01-17T06:10:18.041Z,86.84
2023-01-17T06:12:46.388Z,87.40
2023-01-17T06:15:15.205Z,88.23
2023-01-17T06:17:42.382Z,88.63
2023-01-17T06:20:11.185Z,88.83
2023-01-17T06:22:38.268Z,88.17
2023-01-17T06:25:05.751Z,88.28
2023-01-17T06:27:32.792Z,88.25
2023-01-17T06:29:59.815Z,87.77
2023-01-17T06:32:27.311Z,87.28
2023-01-17T06:34:54.196Z,87.35
2023-01-17T06:37:21.185Z,87.16
2023-01-17T06:39:48.269Z,87.82
2023-01-17T06:42:15.397Z,88.14
2023-01-17T06:44:42.363Z,87.94
2023-01-17T06:47:09.258Z,88.40
2023-01-17T06:49:36.062Z,88.04
2023-01-17T06:52:03.008Z,87.95
2023-01-17T06:54:29.874Z,87.65
2023-01-17T06:56:56.761Z,88.75
2023-01-17T06:59:23.793Z,87.95
2023-01-17T07:01:50.743Z,88.04
2023-01-17T07:04:17.628Z,87.41
2023-01-17T07:06:44.732Z,87.68
2023-01-17T07:09:11.652Z,87.91
2023-01-17T07:11:38.600Z,87.58
2023-01-17T07:14:05.884Z,87.88
2023-01-17T07:16:34.260Z,87.51
2023-01-17T07:19:01.536Z,86.97
2023-01-17T07:21:28.413Z,86.62
2023-01-17T07:23:55.834Z,87.07
2023-01-17T07:26:22.692Z,86.52
2023-01-17T07:28:49.601Z,86.69
2023-01-17T07:31:16.623Z,86.42
2023-01-17T07:33:43.672Z,86.33
2023-01-17T07:36:11.080Z,87.39
2023-01-17T07:38:38.311Z,87.03
2023-01-17T07:41:05.395Z,86.92
2023-01-17T07:43:32.452Z,87.68
2023-01-17T07:46:01.932Z,86.98
2023-01-17T07:48:30.865Z,87.72
2023-01-17T07:50:58.631Z,87.62
2023-01-17T07:53:27.287Z,87.69
2023-01-17T07:55:54.966Z,88.14
2023-01-17T07:58:22.611Z,89.48
2023-01-17T08:00:50.014Z,88.94
2023-01-17T08:03:18.445Z,89.37
2023-01-17T08:05:55.551Z,88.36
2023-01-17T08:08:22.654Z,89.13
2023-01-17T08:10:51.602Z,88.52
2023-01-17T08:13:18.464Z,88.22
2023-01-17T08:15:51.146Z,88.88
2023-01-17T08:18:18.603Z,87.81
2023-01-17T08:20:46.096Z,90.20
2023-01-17T08:23:13.213Z,91.50
2023-01-17T08:25:40.613Z,91.07
2023-01-17T08:28:07.642Z,90.62
2023-01-17T08:30:35.526Z,89.90
2023-01-17T08:33:02.556Z,89.98
2023-01-17T08:35:29.821Z,91.61
2023-01-17T08:37:57.912Z,90.27
2023-01-17T08:40:25.042Z,89.16
2023-01-17T08:42:57.026Z,89.79
2023-01-17T08:45:24.388Z,90.88
2023-01-17T08:47:52.295Z,90.41
2023-01-17T08:50:22.884Z,90.78
2023-01-17T08:52:51.144Z,90.76
2023-01-17T08:55:18.134Z,90.04
2023-01-17T08:57:45.088Z,90.79
2023-01-17T09:00:12.337Z,90.12
2023-01-17T09:02:39.149Z,90.11
2023-01-17T09:05:06.909Z,89.73
2023-01-17T09:07:34.053Z,90.04
2023-01-17T09:10:00.954Z,89.96
2023-01-17T09:12:31.569Z,90.04
2023-01-17T09:14:58.671Z,89.81
2023-01-17T09:17:25.611Z,89.62
2023-01-17T09:19:52.515Z,89.37
2023-01-17T09:22:19.389Z,89.08
2023-01-17T09:24:46.360Z,89.22
2023-01-17T09:27:13.258Z,88.59
2023-01-17T09:29:40.153Z,88.32
2023-01-17T09:32:07.019Z,88.59
2023-01-17T09:34:33.900Z,88.14
2023-01-17T09:37:01.052Z,86.57
2023-01-17T09:39:27.981Z,85.45
2023-01-17T09:42:20.896Z,87.81
2023-01-17T09:44:52.186Z,88.31
2023-01-17T09:47:34.426Z,89.29
2023-01-17T09:50:08.733Z,89.86
2023-01-17T09:52:35.765Z,90.04
2023-01-17T09:55:07.898Z,89.19
2023-01-17T09:57:56.728Z,90.55
2023-01-17T10:01:04.856Z,91.22
2023-01-17T10:04:04.233Z,90.31
2023-01-17T10:06:52.044Z,86.68
2023-01-17T10:10:06.556Z,86.61
2023-01-17T10:12:51.700Z,86.35
2023-01-17T10:15:30.850Z,89.61
2023-01-17T10:18:00.934Z,90.04
2023-01-17T10:20:36.599Z,90.70
2023-01-17T10:23:31.294Z,87.74
2023-01-17T10:26:03.130Z,87.02
2023-01-17T10:28:51.305Z,85.90
2023-01-17T10:31:24.507Z,90.39
2023-01-17T10:34:12.628Z,91.24
2023-01-17T10:36:45.057Z,89.28
2023-01-17T10:39:31.529Z,86.61
2023-01-17T10:42:06.928Z,85.92
2023-01-17T10:44:43.578Z,90.74
2023-01-17T10:47:10.595Z,86.47
2023-01-17T10:49:42.812Z,85.82
2023-01-17T10:52:52.971Z,84.50
2023-01-17T10:55:34.866Z,88.28
2023-01-17T10:58:03.768Z,85.38
2023-01-17T11:00:49.154Z,92.53
2023-01-17T11:03:21.119Z,85.66
2023-01-17T11:06:16.340Z,91.66
2023-01-17T11:08:54.875Z,86.56
2023-01-17T11:11:25.279Z,83.72
2023-01-17T11:13:55.157Z,86.04
2023-01-17T11:16:27.511Z,83.05
2023-01-17T11:19:18.916Z,82.38
2023-01-17T11:22:01.889Z,82.04
2023-01-17T11:24:49.213Z,80.21
2023-01-17T11:27:27.970Z,88.99
2023-01-17T11:30:16.159Z,88.77
2023-01-17T11:33:12.396Z,90.27
2023-01-17T11:35:45.275Z,91.51
2023-01-17T11:38:18.625Z,78.99
2023-01-17T11:40:49.849Z,83.81
2023-01-17T11:43:27.738Z,75.81
2023-01-17T11:46:18.957Z,76.02
2023-01-17T11:48:56.368Z,79.67
2023-01-17T11:51:42.565Z,77.38
2023-01-17T11:54:21.957Z,74.79
2023-01-17T11:56:51.022Z,83.28
2023-01-17T11:59:32.040Z,89.60
2023-01-17T12:02:12.096Z,74.05
2023-01-17T12:04:45.692Z,78.43
2023-01-17T12:07:47.675Z,82.74
2023-01-17T12:10:21.817Z,83.76
2023-01-17T12:13:29.613Z,75.90
2023-01-17T12:16:31.771Z,77.91
2023-01-17T12:19:17.315Z,78.95
2023-01-17T12:21:57.337Z,75.58
2023-01-17T12:24:36.988Z,87.01
2023-01-17T12:27:17.001Z,86.87
2023-01-17T12:29:58.902Z,82.13
2023-01-17T12:32:55.089Z,85.11
2023-01-17T12:35:48.649Z,82.17
2023-01-17T12:38:32.062Z,69.53
2023-01-17T12:41:13.184Z,69.31
2023-01-17T12:43:41.957Z,75.11
2023-01-17T12:46:21.493Z,75.01
2023-01-17T12:48:57.237Z,70.39
2023-01-17T12:51:41.630Z,70.77
2023-01-17T12:54:29.034Z,82.39
2023-01-17T12:57:06.790Z,74.94
2023-01-17T12:59:42.587Z,67.74
2023-01-17T13:02:34.180Z,82.30
2023-01-17T13:05:29.048Z,71.42
2023-01-17T13:08:04.960Z,69.72
2023-01-17T13:10:59.507Z,67.87
2023-01-17T13:13:31.474Z,69.12
2023-01-17T13:16:13.159Z,69.17
2023-01-17T13:18:51.806Z,81.30
2023-01-17T13:21:33.394Z,82.21
2023-01-17T13:24:02.347Z,67.24
2023-01-17T13:27:06.849Z,80.50
2023-01-17T13:29:52.576Z,78.93
2023-01-17T13:32:59.454Z,81.12
2023-01-17T13:35:43.855Z,84.22
2023-01-17T13:38:21.340Z,72.78
2023-01-17T13:40:55.006Z,81.73
2023-01-17T13:43:30.722Z,68.54
2023-01-17T13:46:05.479Z,74.00
2023-01-17T13:48:37.609Z,80.20
2023-01-17T13:51:06.315Z,77.98
2023-01-17T13:53:37.077Z,79.86
2023-01-17T13:56:33.790Z,79.58
2023-01-17T14:03:10.524Z,79.65
2023-01-17T14:05:40.359Z,82.15
2023-01-17T14:08:19.492Z,82.15
2023-01-17T14:10:53.758Z,81.26
2023-01-17T14:13:39.494Z,78.91
2023-01-17T14:16:21.760Z,79.61
2023-01-17T14:18:49.507Z,82.14
2023-01-17T14:21:23.557Z,82.81
2023-01-17T14:23:57.815Z,81.74
2023-01-17T14:26:32.095Z,77.37
2023-01-17T14:29:20.179Z,80.10
2023-01-17T14:31:50.856Z,77.66
2023-01-17T14:34:25.153Z,79.57
2023-01-17T14:36:52.537Z,76.24
2023-01-17T14:39:22.885Z,82.86
2023-01-17T14:41:49.923Z,73.41
2023-01-17T14:44:17.409Z,74.32
2023-01-17T14:46:48.683Z,73.16
2023-01-17T14:49:24.252Z,73.42
2023-01-17T14:52:07.146Z,81.31
2023-01-17T14:54:34.408Z,79.79
2023-01-17T14:57:20.224Z,77.63
2023-01-17T14:59:47.210Z,78.16
2023-01-17T15:02:19.851Z,78.29
2023-01-17T15:04:55.246Z,78.65
2023-01-17T15:07:24.139Z,79.58
2023-01-17T15:09:51.584Z,76.55
2023-01-17T15:12:19.839Z,78.72
2023-01-17T15:14:46.972Z,78.03
2023-01-17T15:17:24.833Z,77.31
2023-01-17T15:19:57.237Z,83.79
2023-01-17T15:22:26.779Z,77.31
2023-01-17T15:24:54.781Z,78.88
2023-01-17T15:27:22.535Z,74.32
2023-01-17T15:29:50.467Z,75.49
2023-01-17T15:32:23.496Z,73.43
2023-01-17T15:34:52.547Z,73.41
2023-01-17T15:37:37.862Z,78.34
2023-01-17T15:40:22.844Z,78.66
2023-01-17T15:42:54.093Z,81.09
2023-01-17T15:45:27.660Z,74.83
2023-01-17T15:47:54.888Z,74.35
2023-01-17T15:50:23.935Z,78.29
2023-01-17T15:52:55.407Z,79.67
2023-01-17T15:55:39.547Z,81.77
2023-01-17T15:58:25.129Z,84.34
2023-01-17T16:00:52.204Z,78.63
2023-01-17T16:03:30.550Z,76.54
2023-01-17T16:06:00.958Z,74.93
2023-01-17T16:08:40.619Z,78.16
2023-01-17T16:11:11.837Z,76.22
2023-01-17T16:13:39.834Z,76.83
2023-01-17T16:16:35.869Z,78.87
2023-01-17T16:19:03.222Z,80.28
2023-01-17T16:21:31.657Z,82.39
2023-01-17T16:24:00.249Z,76.06
2023-01-17T16:26:29.296Z,76.56
2023-01-17T16:28:57.019Z,82.70
2023-01-17T16:31:24.100Z,84.13
2023-01-17T16:33:51.401Z,84.07
2023-01-17T16:36:19.783Z,84.34
2023-01-17T16:38:49.543Z,84.70
2023-01-17T16:41:16.556Z,84.82
2023-01-17T16:43:43.463Z,84.39
2023-01-17T16:46:12.108Z,84.63
2023-01-17T16:48:39.054Z,84.32
2023-01-17T16:51:07.377Z,84.09
2023-01-17T16:53:35.318Z,82.83
2023-01-17T16:56:09.777Z,82.59
2023-01-17T16:58:36.669Z,81.48
2023-01-17T17:01:17.781Z,81.39
2023-01-17T17:03:45.266Z,81.57
2023-01-17T17:06:12.504Z,82.06
2023-01-17T17:08:39.998Z,81.22
2023-01-17T17:11:23.191Z,83.43
2023-01-17T17:13:51.319Z,84.56
2023-01-17T17:16:29.977Z,85.09
2023-01-17T17:19:08.066Z,85.03
2023-01-17T17:21:37.556Z,85.73
2023-01-17T17:24:04.879Z,84.92
2023-01-17T17:26:35.487Z,84.85
2023-01-17T17:29:03.881Z,84.56
2023-01-17T17:31:31.009Z,83.00
2023-01-17T17:34:01.998Z,84.09
2023-01-17T17:36:30.013Z,83.59
2023-01-17T17:38:58.239Z,81.36
2023-01-17T17:41:28.522Z,81.49
2023-01-17T17:43:56.107Z,80.33
2023-01-17T17:46:27.345Z,80.68
2023-01-17T17:48:54.225Z,82.36
2023-01-17T17:51:32.738Z,82.79
2023-01-17T17:54:02.352Z,82.98
2023-01-17T17:56:31.158Z,82.76
2023-01-17T17:58:59.803Z,82.79
2023-01-17T18:01:27.347Z,82.44
2023-01-17T18:03:57.107Z,83.31
2023-01-17T18:06:24.239Z,83.08
2023-01-17T18:08:52.391Z,83.81
2023-01-17T18:11:22.763Z,84.56
2023-01-17T18:13:51.255Z,81.86
2023-01-17T18:16:27.053Z,82.99
2023-01-17T18:18:56.376Z,84.00
2023-01-17T18:21:35.302Z,83.49
2023-01-17T18:24:07.270Z,83.99
2023-01-17T18:26:36.593Z,84.09
2023-01-17T18:29:04.970Z,84.47
2023-01-17T18:31:32.093Z,84.00
2023-01-17T18:34:05.216Z,84.23
2023-01-17T18:36:34.985Z,84.14
2023-01-17T18:39:05.344Z,84.13
2023-01-17T18:41:32.689Z,84.31
2023-01-17T18:44:00.008Z,84.67
2023-01-17T18:46:27.072Z,84.93
2023-01-17T18:48:57.350Z,85.31
2023-01-17T18:51:25.399Z,83.90
2023-01-17T18:53:55.024Z,83.69
2023-01-17T18:56:23.530Z,84.35
2023-01-17T18:58:51.457Z,83.35
2023-01-17T19:01:20.029Z,81.40
2023-01-17T19:03:48.751Z,83.54
2023-01-17T19:06:19.353Z,83.96
2023-01-17T19:08:46.469Z,84.21
2023-01-17T19:11:13.320Z,83.98
2023-01-17T19:13:42.029Z,84.28
2023-01-17T19:16:13.769Z,82.48
2023-01-17T19:18:40.859Z,83.01
2023-01-17T19:21:11.063Z,81.14
2023-01-17T19:23:38.286Z,81.13
2023-01-17T19:26:06.756Z,82.71
2023-01-17T19:28:35.727Z,81.19
2023-01-17T19:31:11.443Z,83.08
2023-01-17T19:33:40.643Z,81.46
2023-01-17T19:36:10.657Z,80.86
2023-01-17T19:38:37.993Z,81.89
2023-01-17T19:41:26.858Z,83.07
2023-01-17T19:43:55.601Z,81.57
2023-01-17T19:46:26.068Z,83.34
2023-01-17T19:48:54.854Z,81.84
2023-01-17T19:51:22.399Z,83.05
2023-01-17T19:53:49.535Z,81.78
2023-01-17T19:56:22.231Z,80.69
2023-01-17T19:58:49.230Z,82.48
2023-01-17T20:01:25.276Z,82.75
2023-01-17T20:03:52.575Z,80.89
2023-01-17T20:06:22.550Z,81.91
2023-01-17T20:08:50.028Z,80.78
2023-01-17T20:11:19.840Z,81.19
2023-01-17T20:13:48.569Z,82.23
2023-01-17T20:16:17.055Z,80.26
2023-01-17T20:18:44.383Z,80.59
2023-01-17T20:21:14.603Z,82.82
2023-01-17T20:23:43.104Z,84.02
2023-01-17T20:26:15.304Z,82.38
2023-01-17T20:28:44.181Z,82.24
2023-01-17T20:31:16.630Z,81.05
2023-01-17T20:33:45.482Z,82.53
2023-01-17T20:36:15.080Z,82.80
2023-01-17T20:38:45.789Z,82.34
2023-01-17T20:41:18.703Z,82.28
2023-01-17T20:43:48.325Z,82.12
2023-01-17T20:46:18.226Z,83.21
2023-01-17T20:48:53.179Z,81.74
2023-01-17T20:51:21.066Z,80.20
2023-01-17T20:53:52.283Z,80.85
2023-01-17T20:56:19.887Z,81.23
2023-01-17T20:58:46.879Z,81.78
2023-01-17T21:01:20.265Z,81.39
2023-01-17T21:03:52.158Z,82.68
2023-01-17T21:06:22.548Z,82.96
2023-01-17T21:08:51.351Z,84.24
2023-01-17T21:11:23.601Z,84.45
2023-01-17T21:13:51.911Z,84.54
2023-01-17T21:16:21.749Z,84.04
2023-01-17T21:18:50.772Z,84.86
2023-01-17T21:21:24.220Z,84.36
2023-01-17T21:23:53.580Z,85.71
2023-01-17T21:26:23.080Z,83.98
2023-01-17T21:28:51.209Z,84.85
2023-01-17T21:31:24.938Z,85.03
2023-01-17T21:33:57.223Z,85.46
2023-01-17T21:36:26.689Z,85.66
2023-01-17T21:38:57.146Z,86.55
2023-01-17T21:41:29.417Z,86.31
2023-01-17T21:44:01.420Z,86.99
2023-01-17T21:46:29.551Z,86.99
2023-01-17T21:48:57.965Z,87.73
2023-01-17T21:51:45.675Z,87.56
2023-01-17T21:54:12.915Z,87.85
2023-01-17T21:56:58.673Z,87.97
2023-01-17T21:59:25.676Z,88.18
2023-01-17T22:01:52.826Z,88.57
2023-01-17T22:04:20.171Z,88.52
2023-01-17T22:06:47.166Z,88.64
2023-01-17T22:09:15.244Z,88.36
2023-01-17T22:11:42.218Z,89.38
2023-01-17T22:14:09.184Z,89.29
2023-01-17T22:16:36.526Z,89.61
2023-01-17T22:19:03.394Z,89.82
2023-01-17T22:21:30.395Z,89.15
2023-01-17T22:23:59.065Z,88.54
2023-01-17T22:26:29.190Z,87.93
2023-01-17T22:28:59.465Z,87.73
2023-01-17T22:31:28.463Z,87.61
2023-01-17T22:34:01.115Z,87.52
2023-01-17T22:36:32.342Z,87.51
2023-01-17T22:38:59.656Z,87.55
2023-01-17T22:41:33.901Z,87.70
2023-01-17T22:44:02.517Z,87.77
2023-01-17T22:46:32.170Z,88.08
2023-01-17T22:48:59.817Z,87.77
2023-01-17T22:51:28.548Z,88.05
2023-01-17T22:53:57.915Z,89.39
2023-01-17T22:56:27.573Z,90.23
2023-01-17T22:58:54.619Z,91.04
2023-01-17T23:01:24.349Z,88.96
2023-01-17T23:03:55.551Z,88.10
2023-01-17T23:06:25.744Z,88.60
2023-01-17T23:08:55.076Z,88.44
2023-01-17T23:11:42.632Z,87.90
2023-01-17T23:14:11.806Z,88.03
2023-01-17T23:16:58.871Z,91.30
2023-01-17T23:19:28.157Z,90.82
2023-01-17T23:22:16.380Z,90.74
2023-01-17T23:24:57.449Z,89.96
2023-01-17T23:28:04.485Z,90.64
2023-01-17T23:30:36.988Z,91.17
2023-01-17T23:33:06.632Z,89.88
2023-01-17T23:35:41.651Z,88.92
2023-01-17T23:38:33.887Z,88.39
2023-01-17T23:41:22.022Z,88.83
2023-01-17T23:43:56.927Z,89.02
2023-01-17T23:46:25.700Z,88.81
2023-01-17T23:48:52.762Z,88.79
2023-01-17T23:51:19.770Z,88.78
2023-01-17T23:53:46.668Z,88.81
2023-01-17T23:56:22.568Z,88.25
2023-01-17T23:58:49.440Z,88.15
